首页
METAR-TAF:

METAR-TAF

机场 :

Ponta Delgada, 亚速尔群岛, 葡萄牙

纬度: 37-44N, 经度: 025-42W, 海拔: 71米

当前天气观测

该预报发布于18分钟前的08:30 UTC
风速10节,风向西转西北,在西北转西北之间变化
温度 14°C
湿度 77%
气压 1017 hPa
能见度10公里或以上
少量云层高于1800英尺

METAR: LPPD 230830Z 30010KT 280V340 9999 FEW018 14/10 Q1017

时间: 08:48 (08:48 UTC)

预报

该预报发布于3小时和48分钟前的05:00 UTC
预报有效从23日的 06点(UTC)到 24日的 06点(UTC)
风速10节,风向北转西北
能见度10公里或以上
散云层高于2500英尺
成为
从 23日的 06点(UTC)到 23日的 09点(UTC)
风速15节,风向西
成为
从 23日的 20点(UTC)到 23日的 23点(UTC)
少量云层高于1200英尺
多云层高于2500英尺
几率 40% :
短暂存在
从 24日的 00点(UTC)到 24日的 06点(UTC)
能見度: 8000
多云层高于1500英尺
少量云层高于1800英尺, 塔状积云.
阵雨

TAF: LPPD 230500Z 2306/2406 34010KT 9999 SCT025 BECMG 2306/2309 28015KT BECMG 2320/2323 FEW012 BKN025 PROB40 TEMPO 2400/2406 8000 SHRA BKN015 FEW018TCU

超过4000个机场的气象观测和天气预报(METAR&TAF报告)。

可查询的气象台以黄色和红色小点在地图上表示。

将鼠标移到小点上方,可查看气象台名称。

然后点击查看天气观测和预报。

如需切换地图:点击带黑十字的绿色按钮放大地图;点击带横线的绿色按钮缩小地图;或者点击绿色箭头查看邻近地区的地图。


METAR-TAF: